sensor_id;sensor_type;location;lat;lon;timestamp;pressure;altitude;pressure_sealevel;temperature;humidity
64292;BME280;50628;51.008;13.658;2024-01-15T00:00:22;97860.91;;;1.19;100.00
64292;BME280;50628;51.008;13.658;2024-01-15T00:05:25;97854.88;;;0.96;100.00
64292;BME280;50628;51.008;13.658;2024-01-15T00:10:27;97852.00;;;1.01;100.00
64292;BME280;50628;51.008;13.658;2024-01-15T00:15:29;97865.94;;;0.97;100.00
64292;BME280;50628;51.008;13.658;2024-01-15T00:20:32;97862.34;;;0.99;100.00
64292;BME280;50628;51.008;13.658;2024-01-15T00:25:34;97861.03;;;0.94;100.00
64292;BME280;50628;51.008;13.658;2024-01-15T00:30:36;97854.47;;;0.90;100.00
64292;BME280;50628;51.008;13.658;2024-01-15T00:35:39;97843.19;;;0.92;100.00
64292;BME280;50628;51.008;13.658;2024-01-15T00:40:41;97836.09;;;0.96;100.00
64292;BME280;50628;51.008;13.658;2024-01-15T00:45:43;97838.31;;;0.89;100.00
64292;BME280;50628;51.008;13.658;2024-01-15T00:50:46;97846.56;;;0.93;100.00
64292;BME280;50628;51.008;13.658;2024-01-15T00:55:48;97837.13;;;0.93;100.00
64292;BME280;50628;51.008;13.658;2024-01-15T01:00:50;97823.66;;;0.91;100.00
64292;BME280;50628;51.008;13.658;2024-01-15T01:05:53;97835.19;;;0.97;100.00
64292;BME280;50628;51.008;13.658;2024-01-15T01:10:55;97808.97;;;0.93;100.00
64292;BME280;50628;51.008;13.658;2024-01-15T01:15:57;97811.66;;;0.92;100.00
64292;BME280;50628;51.008;13.658;2024-01-15T01:21:00;97805.59;;;0.93;100.00
64292;BME280;50628;51.008;13.658;2024-01-15T01:26:03;97792.75;;;0.81;100.00
64292;BME280;50628;51.008;13.658;2024-01-15T01:31:05;97788.69;;;0.90;100.00
64292;BME280;50628;51.008;13.658;2024-01-15T01:36:10;97787.63;;;0.81;100.00
64292;BME280;50628;51.008;13.658;2024-01-15T01:41:12;97779.13;;;0.81;100.00
64292;BME280;50628;51.008;13.658;2024-01-15T01:46:14;97774.34;;;0.76;100.00
64292;BME280;50628;51.008;13.658;2024-01-15T01:51:17;97772.59;;;0.77;100.00
64292;BME280;50628;51.008;13.658;2024-01-15T01:56:19;97791.09;;;0.80;100.00
64292;BME280;50628;51.008;13.658;2024-01-15T02:01:22;97795.66;;;0.77;100.00
64292;BME280;50628;51.008;13.658;2024-01-15T02:06:25;97773.31;;;0.79;100.00
64292;BME280;50628;51.008;13.658;2024-01-15T02:11:27;97764.44;;;0.72;100.00
64292;BME280;50628;51.008;13.658;2024-01-15T02:16:29;97765.47;;;0.69;100.00
64292;BME280;50628;51.008;13.658;2024-01-15T02:21:32;97779.53;;;0.63;100.00
64292;BME280;50628;51.008;13.658;2024-01-15T02:26:36;97775.53;;;0.59;100.00
64292;BME280;50628;51.008;13.658;2024-01-15T02:31:38;97772.03;;;0.60;100.00
64292;BME280;50628;51.008;13.658;2024-01-15T02:36:40;97757.03;;;0.56;100.00
64292;BME280;50628;51.008;13.658;2024-01-15T02:41:43;97769.63;;;0.59;100.00
64292;BME280;50628;51.008;13.658;2024-01-15T02:46:45;97758.06;;;0.53;100.00
64292;BME280;50628;51.008;13.658;2024-01-15T02:51:47;97748.25;;;0.47;100.00
64292;BME280;50628;51.008;13.658;2024-01-15T02:56:50;97765.53;;;0.56;100.00
64292;BME280;50628;51.008;13.658;2024-01-15T03:01:52;97750.03;;;0.58;100.00
64292;BME280;50628;51.008;13.658;2024-01-15T03:06:54;97745.94;;;0.44;100.00
64292;BME280;50628;51.008;13.658;2024-01-15T03:11:57;97730.84;;;0.52;100.00
64292;BME280;50628;51.008;13.658;2024-01-15T03:16:59;97732.09;;;0.47;100.00
64292;BME280;50628;51.008;13.658;2024-01-15T03:22:02;97742.66;;;0.42;100.00
64292;BME280;50628;51.008;13.658;2024-01-15T03:27:06;97735.66;;;0.33;100.00
64292;BME280;50628;51.008;13.658;2024-01-15T03:32:07;97736.16;;;0.25;100.00
64292;BME280;50628;51.008;13.658;2024-01-15T03:37:09;97743.66;;;0.28;100.00
64292;BME280;50628;51.008;13.658;2024-01-15T03:42:12;97745.59;;;0.25;100.00
64292;BME280;50628;51.008;13.658;2024-01-15T03:47:14;97760.16;;;0.11;100.00
64292;BME280;50628;51.008;13.658;2024-01-15T03:52:16;97750.16;;;0.08;100.00
64292;BME280;50628;51.008;13.658;2024-01-15T03:57:19;97749.66;;;0.03;100.00
64292;BME280;50628;51.008;13.658;2024-01-15T04:02:21;97776.97;;;-0.10;100.00
64292;BME280;50628;51.008;13.658;2024-01-15T04:07:23;97750.59;;;-0.11;100.00
64292;BME280;50628;51.008;13.658;2024-01-15T04:12:26;97775.66;;;-0.16;100.00
64292;BME280;50628;51.008;13.658;2024-01-15T04:17:28;97747.75;;;-0.19;100.00
64292;BME280;50628;51.008;13.658;2024-01-15T04:22:30;97736.00;;;-0.22;100.00
64292;BME280;50628;51.008;13.658;2024-01-15T04:27:33;97737.09;;;-0.13;100.00
64292;BME280;50628;51.008;13.658;2024-01-15T04:32:35;97740.66;;;-0.03;100.00
64292;BME280;50628;51.008;13.658;2024-01-15T04:37:37;97739.03;;;-0.04;100.00
64292;BME280;50628;51.008;13.658;2024-01-15T04:42:40;97735.25;;;-0.11;100.00
64292;BME280;50628;51.008;13.658;2024-01-15T04:47:42;97740.59;;;-0.14;100.00
64292;BME280;50628;51.008;13.658;2024-01-15T04:52:44;97745.00;;;-0.16;100.00
64292;BME280;50628;51.008;13.658;2024-01-15T04:57:47;97769.53;;;-0.13;100.00
64292;BME280;50628;51.008;13.658;2024-01-15T05:02:49;97740.84;;;-0.30;100.00
64292;BME280;50628;51.008;13.658;2024-01-15T05:07:51;97764.03;;;-0.20;100.00
64292;BME280;50628;51.008;13.658;2024-01-15T05:12:54;97751.03;;;-0.17;100.00
64292;BME280;50628;51.008;13.658;2024-01-15T05:17:56;97773.03;;;-0.14;100.00
64292;BME280;50628;51.008;13.658;2024-01-15T05:22:58;97759.31;;;-0.26;100.00
64292;BME280;50628;51.008;13.658;2024-01-15T05:28:01;97771.19;;;-0.25;100.00
64292;BME280;50628;51.008;13.658;2024-01-15T05:33:04;97773.94;;;-0.28;100.00
64292;BME280;50628;51.008;13.658;2024-01-15T05:38:07;97765.88;;;-0.35;100.00
64292;BME280;50628;51.008;13.658;2024-01-15T05:43:11;97755.75;;;-0.36;100.00
64292;BME280;50628;51.008;13.658;2024-01-15T05:48:12;97768.53;;;-0.36;100.00
64292;BME280;50628;51.008;13.658;2024-01-15T05:53:14;97781.94;;;-0.33;100.00
64292;BME280;50628;51.008;13.658;2024-01-15T05:58:18;97771.72;;;-0.33;100.00
64292;BME280;50628;51.008;13.658;2024-01-15T06:03:19;97769.16;;;-0.33;100.00
64292;BME280;50628;51.008;13.658;2024-01-15T06:08:21;97747.16;;;-0.35;100.00
64292;BME280;50628;51.008;13.658;2024-01-15T06:13:24;97765.97;;;-0.36;100.00
64292;BME280;50628;51.008;13.658;2024-01-15T06:18:26;97748.31;;;-0.39;100.00
64292;BME280;50628;51.008;13.658;2024-01-15T06:23:28;97752.09;;;-0.32;100.00
64292;BME280;50628;51.008;13.658;2024-01-15T06:28:31;97736.53;;;-0.29;100.00
64292;BME280;50628;51.008;13.658;2024-01-15T06:33:33;97736.75;;;-0.32;100.00
64292;BME280;50628;51.008;13.658;2024-01-15T06:38:35;97732.13;;;-0.27;100.00
64292;BME280;50628;51.008;13.658;2024-01-15T06:43:38;97724.56;;;-0.29;100.00
64292;BME280;50628;51.008;13.658;2024-01-15T06:48:41;97754.22;;;-0.26;100.00
64292;BME280;50628;51.008;13.658;2024-01-15T06:53:43;97738.50;;;-0.33;100.00
64292;BME280;50628;51.008;13.658;2024-01-15T06:58:46;97743.16;;;-0.27;100.00
64292;BME280;50628;51.008;13.658;2024-01-15T07:03:48;97730.91;;;-0.34;100.00
64292;BME280;50628;51.008;13.658;2024-01-15T07:08:50;97738.88;;;-0.26;100.00
64292;BME280;50628;51.008;13.658;2024-01-15T07:13:53;97732.84;;;-0.25;100.00
64292;BME280;50628;51.008;13.658;2024-01-15T07:18:55;97743.47;;;-0.31;100.00
64292;BME280;50628;51.008;13.658;2024-01-15T07:23:57;97748.28;;;-0.27;100.00
64292;BME280;50628;51.008;13.658;2024-01-15T07:29:00;97753.50;;;-0.28;100.00
64292;BME280;50628;51.008;13.658;2024-01-15T07:34:03;97789.97;;;-0.13;100.00
64292;BME280;50628;51.008;13.658;2024-01-15T07:39:05;97780.47;;;-0.11;100.00
64292;BME280;50628;51.008;13.658;2024-01-15T07:44:08;97773.84;;;-0.27;100.00
64292;BME280;50628;51.008;13.658;2024-01-15T07:49:10;97765.06;;;-0.23;100.00
64292;BME280;50628;51.008;13.658;2024-01-15T07:54:12;97773.25;;;-0.30;100.00
64292;BME280;50628;51.008;13.658;2024-01-15T07:59:15;97753.50;;;-0.28;100.00
64292;BME280;50628;51.008;13.658;2024-01-15T08:04:18;97752.16;;;-0.21;100.00
64292;BME280;50628;51.008;13.658;2024-01-15T08:09:20;97759.72;;;-0.19;100.00
64292;BME280;50628;51.008;13.658;2024-01-15T08:14:23;97753.91;;;-0.22;100.00
64292;BME280;50628;51.008;13.658;2024-01-15T08:19:25;97767.50;;;-0.21;100.00
64292;BME280;50628;51.008;13.658;2024-01-15T08:24:27;97764.09;;;-0.09;100.00
64292;BME280;50628;51.008;13.658;2024-01-15T08:29:31;97768.41;;;-0.09;100.00
64292;BME280;50628;51.008;13.658;2024-01-15T08:34:34;97783.53;;;-0.06;100.00
64292;BME280;50628;51.008;13.658;2024-01-15T08:39:36;97761.81;;;-0.01;100.00
64292;BME280;50628;51.008;13.658;2024-01-15T08:44:40;97772.28;;;-0.04;100.00
64292;BME280;50628;51.008;13.658;2024-01-15T08:49:44;97788.34;;;-0.02;100.00
64292;BME280;50628;51.008;13.658;2024-01-15T08:54:46;97761.63;;;0.03;100.00
64292;BME280;50628;51.008;13.658;2024-01-15T08:59:49;97774.75;;;0.22;100.00
64292;BME280;50628;51.008;13.658;2024-01-15T09:04:52;97798.22;;;0.16;100.00
64292;BME280;50628;51.008;13.658;2024-01-15T09:09:53;97784.81;;;0.12;100.00
64292;BME280;50628;51.008;13.658;2024-01-15T09:14:57;97778.31;;;0.32;100.00
64292;BME280;50628;51.008;13.658;2024-01-15T09:19:59;97802.50;;;0.28;100.00
64292;BME280;50628;51.008;13.658;2024-01-15T09:25:00;97776.97;;;0.39;100.00
64292;BME280;50628;51.008;13.658;2024-01-15T09:30:05;97785.53;;;0.51;100.00
64292;BME280;50628;51.008;13.658;2024-01-15T09:35:08;97813.06;;;0.48;100.00
64292;BME280;50628;51.008;13.658;2024-01-15T09:40:13;97784.25;;;0.57;100.00
64292;BME280;50628;51.008;13.658;2024-01-15T09:45:16;97799.84;;;0.54;100.00
64292;BME280;50628;51.008;13.658;2024-01-15T09:50:18;97797.22;;;0.67;100.00
64292;BME280;50628;51.008;13.658;2024-01-15T09:55:21;97789.16;;;0.84;100.00
64292;BME280;50628;51.008;13.658;2024-01-15T10:00:25;97802.50;;;0.76;100.00
64292;BME280;50628;51.008;13.658;2024-01-15T10:05:27;97789.94;;;0.73;100.00
64292;BME280;50628;51.008;13.658;2024-01-15T10:10:29;97776.41;;;0.71;100.00
64292;BME280;50628;51.008;13.658;2024-01-15T10:15:35;97778.09;;;0.83;100.00
64292;BME280;50628;51.008;13.658;2024-01-15T10:20:39;97791.50;;;0.87;100.00
64292;BME280;50628;51.008;13.658;2024-01-15T10:25:41;97759.00;;;0.88;100.00
64292;BME280;50628;51.008;13.658;2024-01-15T10:30:45;97745.97;;;0.91;100.00
64292;BME280;50628;51.008;13.658;2024-01-15T10:35:47;97754.25;;;0.94;100.00
64292;BME280;50628;51.008;13.658;2024-01-15T10:40:51;97756.41;;;1.12;100.00
64292;BME280;50628;51.008;13.658;2024-01-15T10:45:55;97764.53;;;1.05;100.00
64292;BME280;50628;51.008;13.658;2024-01-15T10:50:57;97762.81;;;1.28;100.00
64292;BME280;50628;51.008;13.658;2024-01-15T10:55:59;97733.94;;;1.15;100.00
64292;BME280;50628;51.008;13.658;2024-01-15T11:01:04;97742.88;;;1.10;100.00
64292;BME280;50628;51.008;13.658;2024-01-15T11:06:16;97743.13;;;1.18;100.00
64292;BME280;50628;51.008;13.658;2024-01-15T11:11:18;97750.34;;;1.13;100.00
64292;BME280;50628;51.008;13.658;2024-01-15T11:16:23;97740.31;;;1.10;100.00
64292;BME280;50628;51.008;13.658;2024-01-15T11:21:25;97737.75;;;1.10;100.00
64292;BME280;50628;51.008;13.658;2024-01-15T11:26:35;97746.50;;;1.18;100.00
64292;BME280;50628;51.008;13.658;2024-01-15T11:32:00;97745.44;;;1.10;100.00
64292;BME280;50628;51.008;13.658;2024-01-15T11:37:05;97736.97;;;1.09;100.00
64292;BME280;50628;51.008;13.658;2024-01-15T11:42:06;97729.84;;;1.01;100.00
64292;BME280;50628;51.008;13.658;2024-01-15T11:47:11;97742.00;;;1.33;100.00
64292;BME280;50628;51.008;13.658;2024-01-15T11:52:16;97722.31;;;1.34;100.00
64292;BME280;50628;51.008;13.658;2024-01-15T11:57:24;97727.88;;;1.27;100.00
64292;BME280;50628;51.008;13.658;2024-01-15T12:02:29;97723.38;;;1.31;100.00
64292;BME280;50628;51.008;13.658;2024-01-15T12:07:30;97723.38;;;1.42;100.00
64292;BME280;50628;51.008;13.658;2024-01-15T12:12:39;97726.28;;;1.26;100.00
64292;BME280;50628;51.008;13.658;2024-01-15T12:17:46;97730.22;;;1.19;100.00
64292;BME280;50628;51.008;13.658;2024-01-15T12:22:49;97727.97;;;1.03;100.00
64292;BME280;50628;51.008;13.658;2024-01-15T12:27:51;97728.66;;;0.94;100.00
64292;BME280;50628;51.008;13.658;2024-01-15T12:32:55;97733.06;;;0.92;100.00
64292;BME280;50628;51.008;13.658;2024-01-15T12:37:57;97728.47;;;0.73;100.00
64292;BME280;50628;51.008;13.658;2024-01-15T12:43:00;97721.97;;;0.80;100.00
64292;BME280;50628;51.008;13.658;2024-01-15T12:48:04;97718.25;;;0.73;100.00
64292;BME280;50628;51.008;13.658;2024-01-15T12:53:06;97724.66;;;0.55;100.00
64292;BME280;50628;51.008;13.658;2024-01-15T12:58:08;97705.06;;;0.42;100.00
64292;BME280;50628;51.008;13.658;2024-01-15T13:03:13;97709.50;;;0.40;100.00
64292;BME280;50628;51.008;13.658;2024-01-15T13:08:14;97704.25;;;0.42;100.00
64292;BME280;50628;51.008;13.658;2024-01-15T13:13:16;97711.84;;;0.43;100.00
64292;BME280;50628;51.008;13.658;2024-01-15T13:18:20;97709.06;;;0.47;100.00
64292;BME280;50628;51.008;13.658;2024-01-15T13:23:22;97720.34;;;0.44;100.00
64292;BME280;50628;51.008;13.658;2024-01-15T13:28:23;97718.31;;;0.36;100.00
64292;BME280;50628;51.008;13.658;2024-01-15T13:33:27;97722.63;;;0.36;100.00
64292;BME280;50628;51.008;13.658;2024-01-15T13:38:28;97730.19;;;0.37;100.00
64292;BME280;50628;51.008;13.658;2024-01-15T13:43:36;97736.00;;;0.39;100.00
64292;BME280;50628;51.008;13.658;2024-01-15T13:48:40;97743.69;;;0.15;100.00
64292;BME280;50628;51.008;13.658;2024-01-15T13:53:42;97752.50;;;0.11;100.00
64292;BME280;50628;51.008;13.658;2024-01-15T13:58:44;97762.44;;;0.03;100.00
64292;BME280;50628;51.008;13.658;2024-01-15T14:03:47;97766.94;;;-0.01;100.00
64292;BME280;50628;51.008;13.658;2024-01-15T14:08:49;97777.38;;;-0.04;100.00
64292;BME280;50628;51.008;13.658;2024-01-15T14:13:51;97779.13;;;-0.04;100.00
64292;BME280;50628;51.008;13.658;2024-01-15T14:18:54;97769.22;;;-0.09;100.00
64292;BME280;50628;51.008;13.658;2024-01-15T14:23:56;97763.84;;;-0.30;100.00
64292;BME280;50628;51.008;13.658;2024-01-15T14:28:58;97776.91;;;-0.22;100.00
64292;BME280;50628;51.008;13.658;2024-01-15T14:34:01;97793.88;;;-0.33;100.00
64292;BME280;50628;51.008;13.658;2024-01-15T14:39:04;97791.97;;;-0.55;100.00
64292;BME280;50628;51.008;13.658;2024-01-15T14:44:06;97814.13;;;-0.56;100.00
64292;BME280;50628;51.008;13.658;2024-01-15T14:49:09;97817.09;;;-0.49;100.00
64292;BME280;50628;51.008;13.658;2024-01-15T14:54:11;97824.25;;;-0.54;100.00
64292;BME280;50628;51.008;13.658;2024-01-15T14:59:13;97815.56;;;-0.52;100.00
64292;BME280;50628;51.008;13.658;2024-01-15T15:04:16;97813.81;;;-0.51;100.00
64292;BME280;50628;51.008;13.658;2024-01-15T15:09:18;97796.66;;;-0.49;100.00
64292;BME280;50628;51.008;13.658;2024-01-15T15:14:20;97804.53;;;-0.39;100.00
64292;BME280;50628;51.008;13.658;2024-01-15T15:19:23;97800.53;;;-0.31;100.00
64292;BME280;50628;51.008;13.658;2024-01-15T15:24:25;97792.56;;;-0.26;100.00
64292;BME280;50628;51.008;13.658;2024-01-15T15:29:27;97806.78;;;-0.22;100.00
64292;BME280;50628;51.008;13.658;2024-01-15T15:34:30;97821.38;;;-0.11;100.00
64292;BME280;50628;51.008;13.658;2024-01-15T15:39:32;97828.63;;;-0.05;100.00
64292;BME280;50628;51.008;13.658;2024-01-15T15:44:34;97821.38;;;0.02;100.00
64292;BME280;50628;51.008;13.658;2024-01-15T15:49:38;97828.75;;;-0.07;100.00
64292;BME280;50628;51.008;13.658;2024-01-15T15:54:39;97832.44;;;-0.11;100.00
64292;BME280;50628;51.008;13.658;2024-01-15T15:59:41;97836.94;;;-0.02;100.00
64292;BME280;50628;51.008;13.658;2024-01-15T16:04:45;97839.28;;;-0.11;100.00
64292;BME280;50628;51.008;13.658;2024-01-15T16:09:46;97850.25;;;-0.22;100.00
64292;BME280;50628;51.008;13.658;2024-01-15T16:14:48;97862.31;;;-0.24;100.00
64292;BME280;50628;51.008;13.658;2024-01-15T16:19:51;97860.03;;;-0.16;100.00
64292;BME280;50628;51.008;13.658;2024-01-15T16:24:53;97846.53;;;-0.18;100.00
64292;BME280;50628;51.008;13.658;2024-01-15T16:29:55;97862.28;;;-0.11;100.00
64292;BME280;50628;51.008;13.658;2024-01-15T16:34:58;97860.84;;;-0.15;100.00
64292;BME280;50628;51.008;13.658;2024-01-15T16:40:00;97881.63;;;-0.07;100.00
64292;BME280;50628;51.008;13.658;2024-01-15T16:45:03;97892.38;;;-0.02;100.00
64292;BME280;50628;51.008;13.658;2024-01-15T16:50:07;97874.88;;;-0.21;100.00
64292;BME280;50628;51.008;13.658;2024-01-15T16:55:09;97884.00;;;-0.17;100.00
64292;BME280;50628;51.008;13.658;2024-01-15T17:00:11;97892.47;;;-0.29;100.00
64292;BME280;50628;51.008;13.658;2024-01-15T17:05:15;97891.44;;;-0.27;100.00
64292;BME280;50628;51.008;13.658;2024-01-15T17:10:17;97893.28;;;-0.16;100.00
64292;BME280;50628;51.008;13.658;2024-01-15T17:15:19;97903.00;;;0.05;100.00
64292;BME280;50628;51.008;13.658;2024-01-15T17:20:22;97895.84;;;0.10;100.00
64292;BME280;50628;51.008;13.658;2024-01-15T17:25:24;97896.25;;;0.16;100.00
64292;BME280;50628;51.008;13.658;2024-01-15T17:30:26;97907.59;;;0.25;100.00
64292;BME280;50628;51.008;13.658;2024-01-15T17:35:29;97909.03;;;0.16;100.00
64292;BME280;50628;51.008;13.658;2024-01-15T17:40:31;97909.47;;;0.23;100.00
64292;BME280;50628;51.008;13.658;2024-01-15T17:45:35;97914.06;;;0.18;100.00
64292;BME280;50628;51.008;13.658;2024-01-15T17:50:38;97916.63;;;0.18;100.00
64292;BME280;50628;51.008;13.658;2024-01-15T17:55:40;97916.94;;;0.13;100.00
64292;BME280;50628;51.008;13.658;2024-01-15T18:00:42;97925.63;;;0.11;100.00
64292;BME280;50628;51.008;13.658;2024-01-15T18:05:45;97931.84;;;0.07;100.00
64292;BME280;50628;51.008;13.658;2024-01-15T18:10:47;97932.66;;;-0.06;100.00
64292;BME280;50628;51.008;13.658;2024-01-15T18:15:55;97943.31;;;-0.12;100.00
64292;BME280;50628;51.008;13.658;2024-01-15T18:20:58;97944.03;;;-0.10;100.00
64292;BME280;50628;51.008;13.658;2024-01-15T18:26:00;97945.56;;;-0.20;100.00
64292;BME280;50628;51.008;13.658;2024-01-15T18:31:03;97951.81;;;-0.11;100.00
64292;BME280;50628;51.008;13.658;2024-01-15T18:36:07;97952.59;;;-0.24;100.00
64292;BME280;50628;51.008;13.658;2024-01-15T18:41:19;97961.06;;;-0.23;100.00
64292;BME280;50628;51.008;13.658;2024-01-15T18:46:21;97958.34;;;-0.20;100.00
64292;BME280;50628;51.008;13.658;2024-01-15T18:51:25;97962.31;;;-0.16;100.00
64292;BME280;50628;51.008;13.658;2024-01-15T18:56:27;97967.34;;;-0.27;100.00
64292;BME280;50628;51.008;13.658;2024-01-15T19:01:30;97968.44;;;-0.31;100.00
64292;BME280;50628;51.008;13.658;2024-01-15T19:06:34;97970.50;;;-0.24;100.00
64292;BME280;50628;51.008;13.658;2024-01-15T19:11:35;97971.13;;;-0.20;100.00
64292;BME280;50628;51.008;13.658;2024-01-15T19:16:37;97981.56;;;-0.10;100.00
64292;BME280;50628;51.008;13.658;2024-01-15T19:21:40;97987.00;;;-0.15;100.00
64292;BME280;50628;51.008;13.658;2024-01-15T19:26:43;97994.00;;;-0.31;100.00
64292;BME280;50628;51.008;13.658;2024-01-15T19:31:45;97992.66;;;-0.37;100.00
64292;BME280;50628;51.008;13.658;2024-01-15T19:36:48;97992.34;;;-0.45;100.00
64292;BME280;50628;51.008;13.658;2024-01-15T19:41:50;97984.97;;;-0.50;100.00
64292;BME280;50628;51.008;13.658;2024-01-15T19:46:53;97993.75;;;-0.41;100.00
64292;BME280;50628;51.008;13.658;2024-01-15T19:51:56;97989.47;;;-0.40;100.00
64292;BME280;50628;51.008;13.658;2024-01-15T19:56:59;97995.22;;;-0.37;100.00
64292;BME280;50628;51.008;13.658;2024-01-15T20:02:01;98002.91;;;-0.24;100.00
64292;BME280;50628;51.008;13.658;2024-01-15T20:07:04;98013.41;;;-0.02;100.00
64292;BME280;50628;51.008;13.658;2024-01-15T20:12:08;98027.72;;;0.01;100.00
64292;BME280;50628;51.008;13.658;2024-01-15T20:17:10;98025.16;;;0.01;100.00
64292;BME280;50628;51.008;13.658;2024-01-15T20:22:14;98046.97;;;0.07;100.00
64292;BME280;50628;51.008;13.658;2024-01-15T20:27:18;98050.72;;;-0.12;100.00
64292;BME280;50628;51.008;13.658;2024-01-15T20:32:20;98051.53;;;-0.38;100.00
64292;BME280;50628;51.008;13.658;2024-01-15T20:37:24;98075.66;;;-0.42;100.00
64292;BME280;50628;51.008;13.658;2024-01-15T20:42:25;98077.63;;;-0.33;100.00
64292;BME280;50628;51.008;13.658;2024-01-15T20:47:27;98072.06;;;-0.13;100.00
64292;BME280;50628;51.008;13.658;2024-01-15T20:52:33;98082.22;;;-0.11;100.00
64292;BME280;50628;51.008;13.658;2024-01-15T20:57:35;98095.97;;;-0.27;100.00
64292;BME280;50628;51.008;13.658;2024-01-15T21:02:37;98099.84;;;-0.48;100.00
64292;BME280;50628;51.008;13.658;2024-01-15T21:07:40;98111.00;;;-0.49;100.00
64292;BME280;50628;51.008;13.658;2024-01-15T21:12:44;98114.00;;;-0.42;100.00
64292;BME280;50628;51.008;13.658;2024-01-15T21:17:45;98123.09;;;-0.24;100.00
64292;BME280;50628;51.008;13.658;2024-01-15T21:22:49;98129.50;;;-0.04;100.00
64292;BME280;50628;51.008;13.658;2024-01-15T21:27:50;98134.66;;;0.09;100.00
64292;BME280;50628;51.008;13.658;2024-01-15T21:32:52;98143.91;;;-0.03;100.00
64292;BME280;50628;51.008;13.658;2024-01-15T21:37:56;98149.69;;;0.01;100.00
64292;BME280;50628;51.008;13.658;2024-01-15T21:42:57;98159.66;;;-0.09;100.00
64292;BME280;50628;51.008;13.658;2024-01-15T21:47:59;98165.78;;;-0.12;100.00
64292;BME280;50628;51.008;13.658;2024-01-15T21:53:03;98162.41;;;-0.12;100.00
64292;BME280;50628;51.008;13.658;2024-01-15T21:58:04;98182.00;;;0.02;100.00
64292;BME280;50628;51.008;13.658;2024-01-15T22:03:06;98171.69;;;0.03;100.00
64292;BME280;50628;51.008;13.658;2024-01-15T22:08:10;98185.31;;;-0.11;100.00
64292;BME280;50628;51.008;13.658;2024-01-15T22:13:12;98211.63;;;-0.23;100.00
64292;BME280;50628;51.008;13.658;2024-01-15T22:18:14;98210.75;;;-0.22;100.00
64292;BME280;50628;51.008;13.658;2024-01-15T22:23:17;98212.75;;;-0.27;100.00
64292;BME280;50628;51.008;13.658;2024-01-15T22:28:19;98218.88;;;-0.30;100.00
64292;BME280;50628;51.008;13.658;2024-01-15T22:33:21;98223.81;;;-0.27;100.00
64292;BME280;50628;51.008;13.658;2024-01-15T22:38:24;98222.25;;;-0.29;100.00
64292;BME280;50628;51.008;13.658;2024-01-15T22:43:26;98225.75;;;-0.30;100.00
64292;BME280;50628;51.008;13.658;2024-01-15T22:48:28;98234.38;;;-0.18;100.00
64292;BME280;50628;51.008;13.658;2024-01-15T22:53:31;98234.56;;;-0.07;100.00
64292;BME280;50628;51.008;13.658;2024-01-15T22:58:33;98232.34;;;0.01;100.00
64292;BME280;50628;51.008;13.658;2024-01-15T23:03:35;98238.63;;;0.10;100.00
64292;BME280;50628;51.008;13.658;2024-01-15T23:08:38;98233.50;;;0.10;100.00
64292;BME280;50628;51.008;13.658;2024-01-15T23:13:40;98241.81;;;0.13;100.00
64292;BME280;50628;51.008;13.658;2024-01-15T23:18:43;98257.53;;;0.21;100.00
64292;BME280;50628;51.008;13.658;2024-01-15T23:23:46;98260.28;;;0.18;100.00
64292;BME280;50628;51.008;13.658;2024-01-15T23:28:49;98270.13;;;0.25;100.00
64292;BME280;50628;51.008;13.658;2024-01-15T23:33:50;98281.16;;;0.25;100.00
64292;BME280;50628;51.008;13.658;2024-01-15T23:38:54;98284.72;;;0.22;100.00
64292;BME280;50628;51.008;13.658;2024-01-15T23:43:57;98293.06;;;0.12;100.00
64292;BME280;50628;51.008;13.658;2024-01-15T23:48:58;98303.97;;;0.15;100.00
64292;BME280;50628;51.008;13.658;2024-01-15T23:54:02;98287.59;;;0.18;100.00
64292;BME280;50628;51.008;13.658;2024-01-15T23:59:03;98297.75;;;0.05;100.00
